createdAt,value
2023-03-27T00:01:02.488Z,14.70
2023-03-27T00:06:03.396Z,15.80
2023-03-27T00:10:57.340Z,14.70
2023-03-27T00:15:53.943Z,13.30
2023-03-27T00:20:46.777Z,15.60
2023-03-27T00:25:40.935Z,14.40
2023-03-27T00:30:33.860Z,16.40
2023-03-27T00:35:29.817Z,14.70
2023-03-27T00:40:23.304Z,15.30
2023-03-27T00:45:21.930Z,13.40
2023-03-27T00:50:21.710Z,14.40
2023-03-27T00:55:20.146Z,12.90
2023-03-27T01:00:17.123Z,13.80
2023-03-27T01:05:11.617Z,14.20
2023-03-27T01:10:06.997Z,12.90
2023-03-27T01:15:18.595Z,14.10
2023-03-27T01:20:47.136Z,13.60
2023-03-27T01:25:58.873Z,13.90
2023-03-27T01:30:59.867Z,13.20
2023-03-27T01:36:14.922Z,16.00
2023-03-27T01:41:35.382Z,12.90
2023-03-27T01:46:36.888Z,15.10
2023-03-27T01:51:39.604Z,14.30
2023-03-27T01:56:39.488Z,15.30
2023-03-27T02:01:39.737Z,15.00
2023-03-27T02:06:38.987Z,14.50
2023-03-27T02:11:38.020Z,14.60
2023-03-27T02:16:35.706Z,14.30
2023-03-27T02:21:31.529Z,13.70
2023-03-27T02:26:25.407Z,15.80
2023-03-27T02:31:37.529Z,15.00
2023-03-27T02:36:55.451Z,14.00
2023-03-27T02:42:04.525Z,15.40
2023-03-27T02:47:29.088Z,15.90
2023-03-27T02:52:29.512Z,17.30
2023-03-27T02:57:28.009Z,16.50
2023-03-27T03:02:41.405Z,18.30
2023-03-27T03:07:36.274Z,15.50
2023-03-27T03:12:29.106Z,14.70
2023-03-27T03:17:22.268Z,15.50
2023-03-27T03:22:15.613Z,14.90
2023-03-27T03:27:08.856Z,13.50
2023-03-27T03:32:23.425Z,13.80
2023-03-27T03:37:17.629Z,14.40
2023-03-27T03:42:22.895Z,15.30
2023-03-27T03:47:18.371Z,15.00
2023-03-27T03:52:11.233Z,15.30
2023-03-27T03:57:05.020Z,15.00
2023-03-27T04:01:59.436Z,14.30
2023-03-27T04:06:58.494Z,14.30
2023-03-27T04:11:54.926Z,12.70
2023-03-27T04:17:09.696Z,15.60
2023-03-27T04:22:03.588Z,14.60
2023-03-27T04:27:01.338Z,16.00
2023-03-27T04:32:09.653Z,15.20
2023-03-27T04:41:59.540Z,19.20
2023-03-27T04:46:53.776Z,17.50
2023-03-27T04:51:48.202Z,18.20
2023-03-27T04:56:43.048Z,16.20
2023-03-27T05:01:36.419Z,18.10
2023-03-27T05:06:47.436Z,15.60
2023-03-27T05:11:42.487Z,19.20
2023-03-27T05:16:36.235Z,19.00
2023-03-27T05:21:31.029Z,19.70
2023-03-27T05:26:24.074Z,20.40
2023-03-27T05:31:22.479Z,20.90
2023-03-27T05:36:23.289Z,18.90
2023-03-27T05:41:16.980Z,20.20
2023-03-27T05:46:13.645Z,19.60
2023-03-27T05:51:18.805Z,22.50
2023-03-27T05:56:14.454Z,21.10
2023-03-27T06:01:18.947Z,21.30
2023-03-27T06:06:13.812Z,18.60
2023-03-27T06:11:13.554Z,20.80
2023-03-27T06:16:15.689Z,21.00
2023-03-27T06:21:08.671Z,19.70
2023-03-27T06:26:02.108Z,19.50
2023-03-27T06:30:58.240Z,22.30
2023-03-27T06:36:00.847Z,22.80
2023-03-27T06:40:59.787Z,19.70
2023-03-27T06:46:07.128Z,13.80
2023-03-27T06:51:27.140Z,9.70
2023-03-27T06:56:20.396Z,9.40
2023-03-27T07:01:32.523Z,9.60
2023-03-27T07:06:40.685Z,9.10
2023-03-27T07:11:36.209Z,9.30
2023-03-27T07:16:33.963Z,9.00
2023-03-27T07:21:26.902Z,9.70
2023-03-27T07:26:22.973Z,10.90
2023-03-27T07:36:45.070Z,9.90
2023-03-27T07:41:38.316Z,8.40
2023-03-27T07:46:53.731Z,8.90
2023-03-27T07:51:47.468Z,6.00
2023-03-27T07:56:43.070Z,7.50
2023-03-27T08:01:54.397Z,5.40
2023-03-27T08:06:51.570Z,4.70
2023-03-27T08:11:46.843Z,5.20
2023-03-27T08:16:41.908Z,4.90
2023-03-27T08:21:35.515Z,5.10
2023-03-27T08:26:28.912Z,5.30
2023-03-27T08:31:24.226Z,4.40
2023-03-27T08:36:20.186Z,4.20
2023-03-27T08:41:30.800Z,4.00
2023-03-27T08:46:59.339Z,4.30
2023-03-27T08:51:56.949Z,4.10
2023-03-27T08:56:51.702Z,4.30
2023-03-27T09:01:59.924Z,5.90
2023-03-27T09:07:08.274Z,4.30
2023-03-27T09:12:40.548Z,4.70
2023-03-27T09:17:40.559Z,4.00
2023-03-27T09:22:45.001Z,3.00
2023-03-27T09:27:45.843Z,3.80
2023-03-27T09:33:03.635Z,3.10
2023-03-27T09:38:03.725Z,3.10
2023-03-27T09:43:01.290Z,4.20
2023-03-27T09:47:58.157Z,3.30
2023-03-27T09:52:55.310Z,3.70
2023-03-27T10:03:19.826Z,3.20
2023-03-27T10:08:27.292Z,2.60
2023-03-27T10:13:37.468Z,2.10
2023-03-27T10:18:33.143Z,2.30
2023-03-27T10:23:44.294Z,2.20
2023-03-27T10:28:54.133Z,2.50
2023-03-27T10:33:51.186Z,3.60
2023-03-27T10:39:15.480Z,3.60
2023-03-27T10:44:29.179Z,2.80
2023-03-27T10:49:34.687Z,3.30
2023-03-27T10:54:43.890Z,2.70
2023-03-27T11:00:07.580Z,2.70
2023-03-27T11:05:36.461Z,3.60
2023-03-27T11:10:42.141Z,2.80
2023-03-27T11:15:43.473Z,2.50
2023-03-27T11:21:28.722Z,2.60
2023-03-27T11:26:39.626Z,1.90
2023-03-27T11:31:46.523Z,2.00
2023-03-27T11:36:57.452Z,2.60
2023-03-27T11:42:05.342Z,2.80
2023-03-27T11:47:29.958Z,2.20
2023-03-27T11:53:01.508Z,2.70
2023-03-27T11:58:33.176Z,2.20
2023-03-27T12:04:00.250Z,2.40
2023-03-27T12:09:27.816Z,2.40
2023-03-27T12:15:14.012Z,2.40
2023-03-27T12:20:52.762Z,2.20
2023-03-27T12:26:27.382Z,2.90
2023-03-27T12:36:48.337Z,1.90
2023-03-27T12:41:45.682Z,1.90
2023-03-27T12:47:18.271Z,1.90
2023-03-27T12:52:12.995Z,1.80
2023-03-27T12:57:19.324Z,1.60
2023-03-27T13:07:44.841Z,1.70
2023-03-27T13:13:00.745Z,1.60
2023-03-27T13:18:43.193Z,2.00
2023-03-27T13:24:00.710Z,1.50
2023-03-27T13:28:56.674Z,1.50
2023-03-27T13:34:12.470Z,2.00
2023-03-27T13:39:08.033Z,2.10
2023-03-27T13:44:02.322Z,1.90
2023-03-27T13:49:27.346Z,1.90
2023-03-27T13:54:47.724Z,1.60
2023-03-27T13:59:53.032Z,1.90
2023-03-27T14:05:43.730Z,1.40
2023-03-27T14:11:01.336Z,1.50
2023-03-27T14:16:13.686Z,1.50
2023-03-27T14:21:13.873Z,1.70
2023-03-27T14:26:21.498Z,1.60
2023-03-27T14:31:19.105Z,3.00
2023-03-27T14:36:30.281Z,2.20
2023-03-27T14:41:25.686Z,2.10
2023-03-27T14:46:24.422Z,2.20
2023-03-27T14:51:21.858Z,2.30
2023-03-27T14:56:37.933Z,3.20
2023-03-27T15:01:55.822Z,2.70
2023-03-27T15:06:50.209Z,2.10
2023-03-27T15:12:04.297Z,2.00
2023-03-27T15:17:09.369Z,1.60
2023-03-27T15:22:07.740Z,3.00
2023-03-27T15:31:59.846Z,2.10
2023-03-27T15:37:00.455Z,2.10
2023-03-27T15:41:57.193Z,2.40
2023-03-27T15:46:54.421Z,3.90
2023-03-27T15:51:47.294Z,3.40
2023-03-27T15:56:44.707Z,3.10
2023-03-27T16:01:44.197Z,4.80
2023-03-27T16:06:41.048Z,3.40
2023-03-27T16:11:45.911Z,2.50
2023-03-27T16:16:38.751Z,2.80
2023-03-27T16:21:36.238Z,5.80
2023-03-27T16:31:24.881Z,2.00
2023-03-27T16:36:21.475Z,4.70
2023-03-27T16:41:16.167Z,6.70
2023-03-27T16:46:18.339Z,5.30
2023-03-27T16:51:11.352Z,5.90
2023-03-27T16:56:05.211Z,3.60
2023-03-27T17:00:58.547Z,2.90
2023-03-27T17:05:51.946Z,2.90
2023-03-27T17:10:45.900Z,2.40
2023-03-27T17:15:40.408Z,2.30
2023-03-27T17:20:33.393Z,4.80
2023-03-27T17:25:26.558Z,3.10
2023-03-27T17:30:30.662Z,9.20
2023-03-27T17:35:27.923Z,5.00
2023-03-27T17:40:20.736Z,5.70
2023-03-27T17:45:13.549Z,4.40
2023-03-27T17:50:07.002Z,5.90
2023-03-27T17:55:00.035Z,7.00
2023-03-27T17:59:52.957Z,5.90
2023-03-27T18:04:47.982Z,5.40
2023-03-27T18:09:40.798Z,3.80
2023-03-27T18:14:33.659Z,7.50
2023-03-27T18:19:26.523Z,5.00
2023-03-27T18:24:19.466Z,4.20
2023-03-27T18:29:12.463Z,4.70
2023-03-27T18:34:05.265Z,3.40
2023-03-27T18:38:58.646Z,6.20
2023-03-27T18:43:51.492Z,4.50
2023-03-27T18:48:45.624Z,6.50
2023-03-27T18:53:38.441Z,6.00
2023-03-27T18:58:31.276Z,5.90
2023-03-27T19:03:25.957Z,3.40
2023-03-27T19:08:20.066Z,5.50
2023-03-27T19:13:12.990Z,3.70
2023-03-27T19:18:30.089Z,3.90
2023-03-27T19:23:41.511Z,2.90
2023-03-27T19:28:34.354Z,3.20
2023-03-27T19:33:28.207Z,1.90
2023-03-27T19:38:21.617Z,2.30
2023-03-27T19:43:15.803Z,2.60
2023-03-27T19:48:08.924Z,7.00
2023-03-27T19:53:08.757Z,3.20
2023-03-27T19:58:02.106Z,3.00
2023-03-27T20:02:55.155Z,2.70
2023-03-27T20:07:48.009Z,3.80
2023-03-27T20:12:41.321Z,6.30
2023-03-27T20:17:34.590Z,10.60
2023-03-27T20:22:29.727Z,4.80
2023-03-27T20:27:23.186Z,6.90
2023-03-27T20:32:16.353Z,6.20
2023-03-27T20:37:12.157Z,5.20
2023-03-27T20:42:31.072Z,6.50
2023-03-27T20:47:23.909Z,6.60
2023-03-27T20:52:22.937Z,5.10
2023-03-27T20:57:16.225Z,8.20
2023-03-27T21:02:16.841Z,3.60
2023-03-27T21:07:09.758Z,5.00
2023-03-27T21:12:02.912Z,4.70
2023-03-27T21:16:55.916Z,4.00
2023-03-27T21:21:49.878Z,3.60
2023-03-27T21:26:42.984Z,3.30
2023-03-27T21:31:36.157Z,4.00
2023-03-27T21:36:29.881Z,2.70
2023-03-27T21:41:23.910Z,2.80
2023-03-27T21:46:17.421Z,2.30
2023-03-27T21:51:10.412Z,3.00
2023-03-27T21:56:03.864Z,2.00
2023-03-27T22:00:58.348Z,2.40
2023-03-27T22:05:57.775Z,2.90
2023-03-27T22:10:59.537Z,3.20
2023-03-27T22:15:52.434Z,2.70
2023-03-27T22:20:45.261Z,2.10
2023-03-27T22:25:38.047Z,2.50
2023-03-27T22:30:30.920Z,1.40
2023-03-27T22:35:23.815Z,2.00
2023-03-27T22:40:16.773Z,1.80
2023-03-27T22:45:10.489Z,2.10
2023-03-27T22:50:05.513Z,2.60
2023-03-27T22:54:58.288Z,2.60
2023-03-27T22:59:51.409Z,2.50
2023-03-27T23:04:44.232Z,2.60
2023-03-27T23:09:37.198Z,2.30
2023-03-27T23:14:30.002Z,3.00
2023-03-27T23:19:22.831Z,2.40
2023-03-27T23:24:15.988Z,2.60
2023-03-27T23:29:08.958Z,2.90
2023-03-27T23:34:01.828Z,3.00
2023-03-27T23:38:56.623Z,3.60
2023-03-27T23:43:49.547Z,3.30
2023-03-27T23:48:44.443Z,3.20
2023-03-27T23:53:37.871Z,3.10
2023-03-27T23:58:32.747Z,3.80
